sensor_id;sensor_type;location;lat;lon;timestamp;P1;durP1;ratioP1;P2;durP2;ratioP2
22449;SDS011;11392;57.390;-2.468;2023-11-19T00:00:08;2.72;;;2.42;;
22449;SDS011;11392;57.390;-2.468;2023-11-19T00:02:40;3.05;;;2.75;;
22449;SDS011;11392;57.390;-2.468;2023-11-19T00:05:09;7.53;;;2.38;;
22449;SDS011;11392;57.390;-2.468;2023-11-19T00:07:39;3.22;;;2.75;;
22449;SDS011;11392;57.390;-2.468;2023-11-19T00:10:09;3.28;;;2.83;;
22449;SDS011;11392;57.390;-2.468;2023-11-19T00:12:43;2.65;;;1.80;;
22449;SDS011;11392;57.390;-2.468;2023-11-19T00:15:15;2.00;;;1.88;;
22449;SDS011;11392;57.390;-2.468;2023-11-19T00:17:45;3.63;;;2.17;;
22449;SDS011;11392;57.390;-2.468;2023-11-19T00:20:15;2.50;;;2.30;;
22449;SDS011;11392;57.390;-2.468;2023-11-19T00:22:48;2.80;;;2.25;;
22449;SDS011;11392;57.390;-2.468;2023-11-19T00:25:19;2.10;;;2.00;;
22449;SDS011;11392;57.390;-2.468;2023-11-19T00:27:48;3.20;;;2.90;;
22449;SDS011;11392;57.390;-2.468;2023-11-19T00:30:17;3.35;;;2.42;;
22449;SDS011;11392;57.390;-2.468;2023-11-19T00:32:44;2.88;;;2.40;;
22449;SDS011;11392;57.390;-2.468;2023-11-19T00:35:12;1.70;;;1.50;;
22449;SDS011;11392;57.390;-2.468;2023-11-19T00:37:42;2.83;;;1.65;;
22449;SDS011;11392;57.390;-2.468;2023-11-19T00:40:12;1.63;;;1.52;;
22449;SDS011;11392;57.390;-2.468;2023-11-19T00:42:40;1.60;;;1.50;;
22449;SDS011;11392;57.390;-2.468;2023-11-19T00:45:07;1.52;;;1.42;;
22449;SDS011;11392;57.390;-2.468;2023-11-19T00:47:37;2.05;;;1.90;;
22449;SDS011;11392;57.390;-2.468;2023-11-19T00:50:04;3.10;;;2.20;;
22449;SDS011;11392;57.390;-2.468;2023-11-19T00:52:31;2.58;;;2.03;;
22449;SDS011;11392;57.390;-2.468;2023-11-19T00:54:58;2.35;;;1.90;;
22449;SDS011;11392;57.390;-2.468;2023-11-19T00:57:26;2.20;;;1.65;;
22449;SDS011;11392;57.390;-2.468;2023-11-19T00:59:53;2.20;;;2.00;;
22449;SDS011;11392;57.390;-2.468;2023-11-19T01:02:21;5.63;;;2.97;;
22449;SDS011;11392;57.390;-2.468;2023-11-19T01:04:48;2.67;;;2.25;;
22449;SDS011;11392;57.390;-2.468;2023-11-19T01:07:15;3.97;;;2.08;;
22449;SDS011;11392;57.390;-2.468;2023-11-19T01:09:42;2.15;;;1.95;;
22449;SDS011;11392;57.390;-2.468;2023-11-19T01:12:09;2.05;;;1.40;;
22449;SDS011;11392;57.390;-2.468;2023-11-19T01:14:37;3.28;;;1.60;;
22449;SDS011;11392;57.390;-2.468;2023-11-19T01:17:04;2.10;;;1.73;;
22449;SDS011;11392;57.390;-2.468;2023-11-19T01:19:31;1.50;;;1.27;;
22449;SDS011;11392;57.390;-2.468;2023-11-19T01:21:58;1.52;;;1.42;;
22449;SDS011;11392;57.390;-2.468;2023-11-19T01:24:25;2.03;;;1.40;;
22449;SDS011;11392;57.390;-2.468;2023-11-19T01:26:55;1.80;;;1.48;;
22449;SDS011;11392;57.390;-2.468;2023-11-19T01:29:24;1.42;;;1.33;;
22449;SDS011;11392;57.390;-2.468;2023-11-19T01:31:51;2.30;;;1.85;;
22449;SDS011;11392;57.390;-2.468;2023-11-19T01:34:18;2.70;;;2.00;;
22449;SDS011;11392;57.390;-2.468;2023-11-19T01:36:46;1.45;;;1.35;;
22449;SDS011;11392;57.390;-2.468;2023-11-19T01:39:15;1.83;;;1.33;;
22449;SDS011;11392;57.390;-2.468;2023-11-19T01:41:43;1.52;;;1.42;;
22449;SDS011;11392;57.390;-2.468;2023-11-19T01:44:10;2.47;;;1.90;;
22449;SDS011;11392;57.390;-2.468;2023-11-19T01:46:42;2.25;;;2.00;;
22449;SDS011;11392;57.390;-2.468;2023-11-19T01:49:11;3.38;;;2.15;;
22449;SDS011;11392;57.390;-2.468;2023-11-19T01:51:40;17.88;;;4.63;;
22449;SDS011;11392;57.390;-2.468;2023-11-19T01:54:08;27.70;;;5.78;;
22449;SDS011;11392;57.390;-2.468;2023-11-19T01:56:36;20.73;;;3.58;;
22449;SDS011;11392;57.390;-2.468;2023-11-19T01:59:07;9.55;;;2.97;;
22449;SDS011;11392;57.390;-2.468;2023-11-19T02:01:35;4.60;;;2.83;;
22449;SDS011;11392;57.390;-2.468;2023-11-19T02:04:07;26.73;;;5.28;;
22449;SDS011;11392;57.390;-2.468;2023-11-19T02:06:37;5.30;;;2.90;;
22449;SDS011;11392;57.390;-2.468;2023-11-19T02:09:09;1.83;;;1.73;;
22449;SDS011;11392;57.390;-2.468;2023-11-19T02:11:36;2.58;;;1.95;;
22449;SDS011;11392;57.390;-2.468;2023-11-19T02:14:07;1.65;;;1.55;;
22449;SDS011;11392;57.390;-2.468;2023-11-19T02:16:34;3.42;;;2.13;;
22449;SDS011;11392;57.390;-2.468;2023-11-19T02:19:01;10.02;;;3.28;;
22449;SDS011;11392;57.390;-2.468;2023-11-19T02:21:32;9.15;;;2.65;;
22449;SDS011;11392;57.390;-2.468;2023-11-19T02:23:59;3.35;;;2.28;;
22449;SDS011;11392;57.390;-2.468;2023-11-19T02:26:37;40.72;;;7.10;;
22449;SDS011;11392;57.390;-2.468;2023-11-19T02:29:09;10.07;;;3.42;;
22449;SDS011;11392;57.390;-2.468;2023-11-19T02:31:36;12.70;;;3.25;;
22449;SDS011;11392;57.390;-2.468;2023-11-19T02:34:03;5.15;;;2.03;;
22449;SDS011;11392;57.390;-2.468;2023-11-19T02:36:32;5.90;;;2.13;;
22449;SDS011;11392;57.390;-2.468;2023-11-19T02:38:59;13.88;;;3.22;;
22449;SDS011;11392;57.390;-2.468;2023-11-19T02:41:26;75.18;;;10.20;;
22449;SDS011;11392;57.390;-2.468;2023-11-19T02:43:53;80.68;;;9.90;;
22449;SDS011;11392;57.390;-2.468;2023-11-19T02:46:20;30.00;;;4.82;;
22449;SDS011;11392;57.390;-2.468;2023-11-19T02:48:47;151.00;;;13.52;;
22449;SDS011;11392;57.390;-2.468;2023-11-19T02:51:14;184.95;;;19.65;;
22449;SDS011;11392;57.390;-2.468;2023-11-19T02:53:41;168.80;;;18.40;;
22449;SDS011;11392;57.390;-2.468;2023-11-19T02:56:10;139.13;;;13.75;;
22449;SDS011;11392;57.390;-2.468;2023-11-19T02:58:52;106.25;;;11.20;;
22449;SDS011;11392;57.390;-2.468;2023-11-19T03:01:26;206.70;;;23.60;;
22449;SDS011;11392;57.390;-2.468;2023-11-19T03:04:01;42.30;;;6.75;;
22449;SDS011;11392;57.390;-2.468;2023-11-19T03:06:29;71.97;;;8.13;;
22449;SDS011;11392;57.390;-2.468;2023-11-19T03:08:56;29.33;;;5.40;;
22449;SDS011;11392;57.390;-2.468;2023-11-19T03:11:24;162.35;;;18.83;;
22449;SDS011;11392;57.390;-2.468;2023-11-19T03:13:51;220.38;;;24.38;;
22449;SDS011;11392;57.390;-2.468;2023-11-19T03:16:18;47.28;;;6.78;;
22449;SDS011;11392;57.390;-2.468;2023-11-19T03:18:45;186.25;;;20.55;;
22449;SDS011;11392;57.390;-2.468;2023-11-19T03:21:12;45.67;;;6.20;;
22449;SDS011;11392;57.390;-2.468;2023-11-19T03:23:40;71.40;;;9.07;;
22449;SDS011;11392;57.390;-2.468;2023-11-19T03:26:07;37.05;;;5.53;;
22449;SDS011;11392;57.390;-2.468;2023-11-19T03:28:35;29.30;;;4.72;;
22449;SDS011;11392;57.390;-2.468;2023-11-19T03:31:05;142.13;;;17.60;;
22449;SDS011;11392;57.390;-2.468;2023-11-19T03:33:35;20.40;;;3.75;;
22449;SDS011;11392;57.390;-2.468;2023-11-19T03:36:04;42.60;;;5.93;;
22449;SDS011;11392;57.390;-2.468;2023-11-19T03:38:32;70.07;;;7.20;;
22449;SDS011;11392;57.390;-2.468;2023-11-19T03:40:59;60.40;;;6.63;;
22449;SDS011;11392;57.390;-2.468;2023-11-19T03:43:26;31.63;;;4.78;;
22449;SDS011;11392;57.390;-2.468;2023-11-19T03:45:54;14.82;;;2.72;;
22449;SDS011;11392;57.390;-2.468;2023-11-19T03:48:21;48.78;;;9.40;;
22449;SDS011;11392;57.390;-2.468;2023-11-19T03:50:48;8.98;;;2.05;;
22449;SDS011;11392;57.390;-2.468;2023-11-19T03:53:15;63.08;;;8.63;;
22449;SDS011;11392;57.390;-2.468;2023-11-19T03:55:42;51.63;;;7.32;;
22449;SDS011;11392;57.390;-2.468;2023-11-19T03:58:09;117.10;;;13.02;;
22449;SDS011;11392;57.390;-2.468;2023-11-19T04:00:36;174.80;;;18.52;;
22449;SDS011;11392;57.390;-2.468;2023-11-19T04:03:03;35.95;;;4.32;;
22449;SDS011;11392;57.390;-2.468;2023-11-19T04:05:31;25.40;;;3.40;;
22449;SDS011;11392;57.390;-2.468;2023-11-19T04:07:58;25.20;;;3.10;;
22449;SDS011;11392;57.390;-2.468;2023-11-19T04:10:25;3.70;;;1.30;;
22449;SDS011;11392;57.390;-2.468;2023-11-19T04:12:54;59.60;;;5.75;;
22449;SDS011;11392;57.390;-2.468;2023-11-19T04:15:21;6.35;;;1.77;;
22449;SDS011;11392;57.390;-2.468;2023-11-19T04:17:48;104.65;;;11.57;;
22449;SDS011;11392;57.390;-2.468;2023-11-19T04:20:15;47.40;;;5.20;;
22449;SDS011;11392;57.390;-2.468;2023-11-19T04:22:42;37.75;;;6.25;;
22449;SDS011;11392;57.390;-2.468;2023-11-19T04:25:09;166.80;;;17.20;;
22449;SDS011;11392;57.390;-2.468;2023-11-19T04:27:37;56.97;;;6.30;;
22449;SDS011;11392;57.390;-2.468;2023-11-19T04:30:04;132.57;;;13.30;;
22449;SDS011;11392;57.390;-2.468;2023-11-19T04:32:37;72.07;;;8.63;;
22449;SDS011;11392;57.390;-2.468;2023-11-19T04:35:05;123.28;;;11.70;;
22449;SDS011;11392;57.390;-2.468;2023-11-19T04:37:33;140.90;;;12.90;;
22449;SDS011;11392;57.390;-2.468;2023-11-19T04:40:01;66.40;;;7.90;;
22449;SDS011;11392;57.390;-2.468;2023-11-19T04:42:30;202.30;;;19.90;;
22449;SDS011;11392;57.390;-2.468;2023-11-19T04:44:59;99.25;;;10.52;;
22449;SDS011;11392;57.390;-2.468;2023-11-19T04:47:26;94.25;;;10.57;;
22449;SDS011;11392;57.390;-2.468;2023-11-19T04:49:53;118.85;;;13.77;;
22449;SDS011;11392;57.390;-2.468;2023-11-19T04:52:20;151.52;;;17.25;;
22449;SDS011;11392;57.390;-2.468;2023-11-19T04:54:47;12.32;;;2.65;;
22449;SDS011;11392;57.390;-2.468;2023-11-19T04:57:15;138.85;;;11.38;;
22449;SDS011;11392;57.390;-2.468;2023-11-19T04:59:42;63.83;;;6.97;;
22449;SDS011;11392;57.390;-2.468;2023-11-19T05:02:09;1.25;;;1.10;;
22449;SDS011;11392;57.390;-2.468;2023-11-19T05:04:36;121.25;;;11.38;;
22449;SDS011;11392;57.390;-2.468;2023-11-19T05:07:06;117.70;;;12.98;;
22449;SDS011;11392;57.390;-2.468;2023-11-19T05:09:34;120.95;;;10.63;;
22449;SDS011;11392;57.390;-2.468;2023-11-19T05:12:02;47.95;;;6.28;;
22449;SDS011;11392;57.390;-2.468;2023-11-19T05:14:29;101.07;;;10.13;;
22449;SDS011;11392;57.390;-2.468;2023-11-19T05:16:56;79.10;;;10.18;;
22449;SDS011;11392;57.390;-2.468;2023-11-19T05:19:24;131.40;;;13.80;;
22449;SDS011;11392;57.390;-2.468;2023-11-19T05:21:51;85.93;;;9.10;;
22449;SDS011;11392;57.390;-2.468;2023-11-19T05:24:19;1.98;;;1.17;;
22449;SDS011;11392;57.390;-2.468;2023-11-19T05:26:46;2.72;;;1.40;;
22449;SDS011;11392;57.390;-2.468;2023-11-19T05:29:13;1.05;;;0.93;;
22449;SDS011;11392;57.390;-2.468;2023-11-19T05:31:40;0.82;;;0.82;;
22449;SDS011;11392;57.390;-2.468;2023-11-19T05:34:10;1.08;;;1.00;;
22449;SDS011;11392;57.390;-2.468;2023-11-19T05:36:38;2.00;;;1.20;;
22449;SDS011;11392;57.390;-2.468;2023-11-19T05:39:06;0.80;;;0.80;;
22449;SDS011;11392;57.390;-2.468;2023-11-19T05:41:36;1.10;;;1.00;;
22449;SDS011;11392;57.390;-2.468;2023-11-19T05:44:03;1.20;;;1.00;;
22449;SDS011;11392;57.390;-2.468;2023-11-19T05:46:30;1.30;;;1.00;;
22449;SDS011;11392;57.390;-2.468;2023-11-19T05:48:57;0.60;;;0.60;;
22449;SDS011;11392;57.390;-2.468;2023-11-19T05:51:24;0.90;;;0.52;;
22449;SDS011;11392;57.390;-2.468;2023-11-19T05:53:51;0.60;;;0.60;;
22449;SDS011;11392;57.390;-2.468;2023-11-19T05:56:18;0.70;;;0.70;;
22449;SDS011;11392;57.390;-2.468;2023-11-19T05:58:48;2.58;;;0.80;;
22449;SDS011;11392;57.390;-2.468;2023-11-19T06:01:15;0.95;;;0.85;;
22449;SDS011;11392;57.390;-2.468;2023-11-19T06:03:43;1.42;;;0.98;;
22449;SDS011;11392;57.390;-2.468;2023-11-19T06:06:16;2.70;;;1.38;;
22449;SDS011;11392;57.390;-2.468;2023-11-19T06:08:43;1.08;;;0.98;;
22449;SDS011;11392;57.390;-2.468;2023-11-19T06:11:11;1.33;;;0.95;;
22449;SDS011;11392;57.390;-2.468;2023-11-19T06:13:45;1.08;;;0.95;;
22449;SDS011;11392;57.390;-2.468;2023-11-19T06:16:13;0.70;;;0.70;;
22449;SDS011;11392;57.390;-2.468;2023-11-19T06:18:40;0.70;;;0.70;;
22449;SDS011;11392;57.390;-2.468;2023-11-19T06:21:08;0.80;;;0.80;;
22449;SDS011;11392;57.390;-2.468;2023-11-19T06:23:35;0.70;;;0.70;;
22449;SDS011;11392;57.390;-2.468;2023-11-19T06:26:02;1.27;;;0.60;;
22449;SDS011;11392;57.390;-2.468;2023-11-19T06:28:29;0.47;;;0.40;;
22449;SDS011;11392;57.390;-2.468;2023-11-19T06:30:57;0.30;;;0.30;;
22449;SDS011;11392;57.390;-2.468;2023-11-19T06:33:24;1.75;;;0.50;;
22449;SDS011;11392;57.390;-2.468;2023-11-19T06:35:51;1.27;;;0.57;;
22449;SDS011;11392;57.390;-2.468;2023-11-19T06:38:18;0.70;;;0.50;;
22449;SDS011;11392;57.390;-2.468;2023-11-19T06:40:45;0.50;;;0.50;;
22449;SDS011;11392;57.390;-2.468;2023-11-19T06:43:14;0.63;;;0.63;;
22449;SDS011;11392;57.390;-2.468;2023-11-19T06:45:41;0.50;;;0.40;;
22449;SDS011;11392;57.390;-2.468;2023-11-19T06:48:09;0.38;;;0.38;;
22449;SDS011;11392;57.390;-2.468;2023-11-19T06:50:36;0.50;;;0.43;;
22449;SDS011;11392;57.390;-2.468;2023-11-19T06:53:03;0.30;;;0.30;;
22449;SDS011;11392;57.390;-2.468;2023-11-19T06:55:32;0.85;;;0.50;;
22449;SDS011;11392;57.390;-2.468;2023-11-19T06:58:00;0.35;;;0.35;;
22449;SDS011;11392;57.390;-2.468;2023-11-19T07:00:28;0.65;;;0.30;;
22449;SDS011;11392;57.390;-2.468;2023-11-19T07:02:59;1.35;;;0.40;;
22449;SDS011;11392;57.390;-2.468;2023-11-19T07:05:26;0.20;;;0.20;;
22449;SDS011;11392;57.390;-2.468;2023-11-19T07:07:54;0.77;;;0.50;;
22449;SDS011;11392;57.390;-2.468;2023-11-19T07:10:22;0.40;;;0.30;;
22449;SDS011;11392;57.390;-2.468;2023-11-19T07:12:49;0.40;;;0.40;;
22449;SDS011;11392;57.390;-2.468;2023-11-19T07:15:17;0.40;;;0.20;;
22449;SDS011;11392;57.390;-2.468;2023-11-19T07:17:44;0.40;;;0.40;;
22449;SDS011;11392;57.390;-2.468;2023-11-19T07:20:11;0.40;;;0.40;;
22449;SDS011;11392;57.390;-2.468;2023-11-19T07:22:45;0.50;;;0.50;;
22449;SDS011;11392;57.390;-2.468;2023-11-19T07:25:15;0.40;;;0.40;;
22449;SDS011;11392;57.390;-2.468;2023-11-19T07:27:42;2.05;;;0.43;;
22449;SDS011;11392;57.390;-2.468;2023-11-19T07:30:09;0.65;;;0.40;;
22449;SDS011;11392;57.390;-2.468;2023-11-19T07:32:36;3.40;;;0.47;;
22449;SDS011;11392;57.390;-2.468;2023-11-19T07:35:05;1.23;;;0.40;;
22449;SDS011;11392;57.390;-2.468;2023-11-19T07:37:33;0.43;;;0.38;;
22449;SDS011;11392;57.390;-2.468;2023-11-19T07:40:00;0.38;;;0.30;;
22449;SDS011;11392;57.390;-2.468;2023-11-19T07:42:28;0.22;;;0.22;;
22449;SDS011;11392;57.390;-2.468;2023-11-19T07:44:55;0.95;;;0.30;;
22449;SDS011;11392;57.390;-2.468;2023-11-19T07:47:23;0.30;;;0.30;;
22449;SDS011;11392;57.390;-2.468;2023-11-19T07:49:50;0.90;;;0.47;;
22449;SDS011;11392;57.390;-2.468;2023-11-19T07:52:17;1.35;;;0.60;;
22449;SDS011;11392;57.390;-2.468;2023-11-19T07:54:47;2.65;;;0.60;;
22449;SDS011;11392;57.390;-2.468;2023-11-19T07:57:15;0.43;;;0.43;;
22449;SDS011;11392;57.390;-2.468;2023-11-19T07:59:42;0.50;;;0.40;;
22449;SDS011;11392;57.390;-2.468;2023-11-19T08:02:09;0.38;;;0.38;;
22449;SDS011;11392;57.390;-2.468;2023-11-19T08:04:36;1.33;;;0.50;;
22449;SDS011;11392;57.390;-2.468;2023-11-19T08:07:06;1.75;;;0.30;;
22449;SDS011;11392;57.390;-2.468;2023-11-19T08:09:33;0.47;;;0.47;;
22449;SDS011;11392;57.390;-2.468;2023-11-19T08:12:01;0.40;;;0.40;;
22449;SDS011;11392;57.390;-2.468;2023-11-19T08:14:28;0.25;;;0.25;;
22449;SDS011;11392;57.390;-2.468;2023-11-19T08:16:55;0.28;;;0.28;;
22449;SDS011;11392;57.390;-2.468;2023-11-19T08:19:22;0.40;;;0.40;;
22449;SDS011;11392;57.390;-2.468;2023-11-19T08:21:49;0.65;;;0.30;;
22449;SDS011;11392;57.390;-2.468;2023-11-19T08:24:16;0.38;;;0.38;;
22449;SDS011;11392;57.390;-2.468;2023-11-19T08:26:43;1.00;;;0.38;;
22449;SDS011;11392;57.390;-2.468;2023-11-19T08:29:10;0.50;;;0.50;;
22449;SDS011;11392;57.390;-2.468;2023-11-19T08:31:37;2.58;;;0.65;;
22449;SDS011;11392;57.390;-2.468;2023-11-19T08:34:05;0.30;;;0.30;;
22449;SDS011;11392;57.390;-2.468;2023-11-19T08:36:35;2.72;;;0.63;;
22449;SDS011;11392;57.390;-2.468;2023-11-19T08:39:02;0.40;;;0.40;;
22449;SDS011;11392;57.390;-2.468;2023-11-19T08:41:29;0.30;;;0.30;;
22449;SDS011;11392;57.390;-2.468;2023-11-19T08:43:57;0.38;;;0.38;;
22449;SDS011;11392;57.390;-2.468;2023-11-19T08:46:24;0.20;;;0.20;;
22449;SDS011;11392;57.390;-2.468;2023-11-19T08:48:51;0.77;;;0.40;;
22449;SDS011;11392;57.390;-2.468;2023-11-19T08:51:18;0.75;;;0.30;;
22449;SDS011;11392;57.390;-2.468;2023-11-19T08:53:45;0.30;;;0.30;;
22449;SDS011;11392;57.390;-2.468;2023-11-19T08:56:13;0.80;;;0.38;;
22449;SDS011;11392;57.390;-2.468;2023-11-19T08:58:40;0.40;;;0.32;;
22449;SDS011;11392;57.390;-2.468;2023-11-19T09:01:07;0.80;;;0.40;;
22449;SDS011;11392;57.390;-2.468;2023-11-19T09:03:36;0.70;;;0.30;;
22449;SDS011;11392;57.390;-2.468;2023-11-19T09:06:03;5.80;;;0.50;;
22449;SDS011;11392;57.390;-2.468;2023-11-19T09:08:30;0.30;;;0.30;;
22449;SDS011;11392;57.390;-2.468;2023-11-19T09:10:58;0.30;;;0.30;;
22449;SDS011;11392;57.390;-2.468;2023-11-19T09:13:25;2.63;;;0.40;;
22449;SDS011;11392;57.390;-2.468;2023-11-19T09:15:52;1.20;;;0.30;;
22449;SDS011;11392;57.390;-2.468;2023-11-19T09:18:19;0.30;;;0.30;;
22449;SDS011;11392;57.390;-2.468;2023-11-19T09:20:46;0.68;;;0.47;;
22449;SDS011;11392;57.390;-2.468;2023-11-19T09:23:13;0.45;;;0.30;;
22449;SDS011;11392;57.390;-2.468;2023-11-19T09:25:40;0.75;;;0.28;;
22449;SDS011;11392;57.390;-2.468;2023-11-19T09:28:11;0.30;;;0.30;;
22449;SDS011;11392;57.390;-2.468;2023-11-19T09:30:39;0.30;;;0.22;;
22449;SDS011;11392;57.390;-2.468;2023-11-19T09:33:06;1.05;;;0.40;;
22449;SDS011;11392;57.390;-2.468;2023-11-19T09:35:34;0.50;;;0.50;;
22449;SDS011;11392;57.390;-2.468;2023-11-19T09:38:01;0.65;;;0.47;;
22449;SDS011;11392;57.390;-2.468;2023-11-19T09:40:30;0.30;;;0.30;;
22449;SDS011;11392;57.390;-2.468;2023-11-19T09:42:58;0.50;;;0.50;;
22449;SDS011;11392;57.390;-2.468;2023-11-19T09:45:26;0.30;;;0.30;;
22449;SDS011;11392;57.390;-2.468;2023-11-19T09:47:55;0.85;;;0.40;;
22449;SDS011;11392;57.390;-2.468;2023-11-19T09:50:24;2.17;;;0.50;;
22449;SDS011;11392;57.390;-2.468;2023-11-19T09:52:51;0.60;;;0.60;;
22449;SDS011;11392;57.390;-2.468;2023-11-19T09:55:18;0.93;;;0.60;;
22449;SDS011;11392;57.390;-2.468;2023-11-19T09:57:46;0.88;;;0.40;;
22449;SDS011;11392;57.390;-2.468;2023-11-19T10:00:16;1.80;;;0.52;;
22449;SDS011;11392;57.390;-2.468;2023-11-19T10:02:45;0.80;;;0.52;;
22449;SDS011;11392;57.390;-2.468;2023-11-19T10:05:15;0.60;;;0.40;;
22449;SDS011;11392;57.390;-2.468;2023-11-19T10:07:42;0.47;;;0.40;;
22449;SDS011;11392;57.390;-2.468;2023-11-19T10:10:11;0.77;;;0.50;;
22449;SDS011;11392;57.390;-2.468;2023-11-19T10:12:45;0.82;;;0.50;;
22449;SDS011;11392;57.390;-2.468;2023-11-19T10:15:22;0.98;;;0.57;;
22449;SDS011;11392;57.390;-2.468;2023-11-19T10:17:51;1.13;;;0.60;;
22449;SDS011;11392;57.390;-2.468;2023-11-19T10:20:22;1.50;;;0.52;;
22449;SDS011;11392;57.390;-2.468;2023-11-19T10:22:53;0.82;;;0.82;;
22449;SDS011;11392;57.390;-2.468;2023-11-19T10:25:25;0.60;;;0.52;;
22449;SDS011;11392;57.390;-2.468;2023-11-19T10:27:54;0.70;;;0.43;;
22449;SDS011;11392;57.390;-2.468;2023-11-19T10:30:29;0.43;;;0.38;;
22449;SDS011;11392;57.390;-2.468;2023-11-19T10:33:06;1.88;;;0.47;;
22449;SDS011;11392;57.390;-2.468;2023-11-19T10:35:35;0.93;;;0.55;;
22449;SDS011;11392;57.390;-2.468;2023-11-19T10:38:28;0.77;;;0.50;;
22449;SDS011;11392;57.390;-2.468;2023-11-19T10:40:57;0.55;;;0.40;;
22449;SDS011;11392;57.390;-2.468;2023-11-19T10:43:25;0.50;;;0.50;;
22449;SDS011;11392;57.390;-2.468;2023-11-19T10:45:52;1.33;;;0.60;;
22449;SDS011;11392;57.390;-2.468;2023-11-19T10:48:19;0.63;;;0.40;;
22449;SDS011;11392;57.390;-2.468;2023-11-19T10:50:49;0.63;;;0.50;;
22449;SDS011;11392;57.390;-2.468;2023-11-19T10:53:21;0.50;;;0.50;;
22449;SDS011;11392;57.390;-2.468;2023-11-19T10:55:53;0.52;;;0.52;;
22449;SDS011;11392;57.390;-2.468;2023-11-19T10:58:25;0.80;;;0.50;;
22449;SDS011;11392;57.390;-2.468;2023-11-19T11:00:55;1.67;;;0.55;;
22449;SDS011;11392;57.390;-2.468;2023-11-19T11:03:35;1.15;;;0.50;;
22449;SDS011;11392;57.390;-2.468;2023-11-19T11:06:07;2.35;;;0.82;;
22449;SDS011;11392;57.390;-2.468;2023-11-19T11:08:39;0.95;;;0.52;;
22449;SDS011;11392;57.390;-2.468;2023-11-19T11:11:07;0.70;;;0.50;;
22449;SDS011;11392;57.390;-2.468;2023-11-19T11:13:34;0.50;;;0.50;;
22449;SDS011;11392;57.390;-2.468;2023-11-19T11:16:05;2.17;;;0.60;;
22449;SDS011;11392;57.390;-2.468;2023-11-19T11:18:34;0.50;;;0.50;;
22449;SDS011;11392;57.390;-2.468;2023-11-19T11:23:46;2.33;;;0.73;;
22449;SDS011;11392;57.390;-2.468;2023-11-19T11:37:45;1.20;;;1.10;;
22449;SDS011;11392;57.390;-2.468;2023-11-19T11:40:16;1.77;;;1.35;;
22449;SDS011;11392;57.390;-2.468;2023-11-19T11:42:44;1.65;;;1.25;;
22449;SDS011;11392;57.390;-2.468;2023-11-19T11:45:12;1.48;;;1.38;;
22449;SDS011;11392;57.390;-2.468;2023-11-19T11:50:12;2.10;;;1.27;;
22449;SDS011;11392;57.390;-2.468;2023-11-19T11:58:17;3.35;;;1.80;;
22449;SDS011;11392;57.390;-2.468;2023-11-19T12:00:58;1.92;;;1.70;;
22449;SDS011;11392;57.390;-2.468;2023-11-19T12:03:28;2.15;;;1.52;;
22449;SDS011;11392;57.390;-2.468;2023-11-19T12:05:57;1.77;;;1.48;;
22449;SDS011;11392;57.390;-2.468;2023-11-19T12:08:26;2.85;;;2.15;;
22449;SDS011;11392;57.390;-2.468;2023-11-19T12:10:55;2.17;;;1.90;;
22449;SDS011;11392;57.390;-2.468;2023-11-19T12:13:29;3.30;;;2.55;;
22449;SDS011;11392;57.390;-2.468;2023-11-19T12:16:13;3.25;;;2.55;;
22449;SDS011;11392;57.390;-2.468;2023-11-19T12:18:41;2.53;;;2.15;;
22449;SDS011;11392;57.390;-2.468;2023-11-19T12:21:08;4.78;;;2.50;;
22449;SDS011;11392;57.390;-2.468;2023-11-19T12:23:45;2.88;;;2.30;;
22449;SDS011;11392;57.390;-2.468;2023-11-19T12:29:01;2.45;;;1.70;;
22449;SDS011;11392;57.390;-2.468;2023-11-19T12:31:34;3.08;;;2.08;;
22449;SDS011;11392;57.390;-2.468;2023-11-19T12:34:06;4.60;;;2.42;;
22449;SDS011;11392;57.390;-2.468;2023-11-19T12:36:34;2.35;;;2.10;;
22449;SDS011;11392;57.390;-2.468;2023-11-19T12:39:01;3.38;;;2.42;;
22449;SDS011;11392;57.390;-2.468;2023-11-19T12:41:30;2.60;;;2.08;;
22449;SDS011;11392;57.390;-2.468;2023-11-19T12:44:10;5.32;;;2.08;;
22449;SDS011;11392;57.390;-2.468;2023-11-19T12:46:38;2.03;;;1.88;;
22449;SDS011;11392;57.390;-2.468;2023-11-19T12:49:06;3.25;;;2.40;;
22449;SDS011;11392;57.390;-2.468;2023-11-19T12:51:33;3.10;;;2.80;;
22449;SDS011;11392;57.390;-2.468;2023-11-19T12:54:00;3.60;;;2.80;;
22449;SDS011;11392;57.390;-2.468;2023-11-19T12:56:27;4.63;;;2.72;;
22449;SDS011;11392;57.390;-2.468;2023-11-19T12:58:56;3.50;;;2.70;;
22449;SDS011;11392;57.390;-2.468;2023-11-19T13:01:23;2.15;;;1.95;;
22449;SDS011;11392;57.390;-2.468;2023-11-19T13:03:50;1.77;;;1.65;;
22449;SDS011;11392;57.390;-2.468;2023-11-19T13:06:18;1.67;;;1.30;;
22449;SDS011;11392;57.390;-2.468;2023-11-19T13:08:48;2.55;;;0.80;;
22449;SDS011;11392;57.390;-2.468;2023-11-19T13:11:30;1.00;;;0.75;;
22449;SDS011;11392;57.390;-2.468;2023-11-19T13:13:59;0.75;;;0.75;;
22449;SDS011;11392;57.390;-2.468;2023-11-19T13:16:30;0.73;;;0.73;;
22449;SDS011;11392;57.390;-2.468;2023-11-19T13:18:58;1.00;;;0.75;;
22449;SDS011;11392;57.390;-2.468;2023-11-19T13:21:27;1.63;;;0.52;;
22449;SDS011;11392;57.390;-2.468;2023-11-19T13:23:54;1.05;;;0.60;;
22449;SDS011;11392;57.390;-2.468;2023-11-19T13:26:22;1.02;;;0.60;;
22449;SDS011;11392;57.390;-2.468;2023-11-19T13:28:49;0.63;;;0.50;;
22449;SDS011;11392;57.390;-2.468;2023-11-19T13:31:16;0.65;;;0.60;;
22449;SDS011;11392;57.390;-2.468;2023-11-19T13:33:44;1.30;;;0.50;;
22449;SDS011;11392;57.390;-2.468;2023-11-19T13:36:12;0.55;;;0.38;;
22449;SDS011;11392;57.390;-2.468;2023-11-19T13:38:43;2.08;;;0.47;;
22449;SDS011;11392;57.390;-2.468;2023-11-19T13:41:11;0.50;;;0.40;;
22449;SDS011;11392;57.390;-2.468;2023-11-19T13:43:40;1.40;;;0.68;;
22449;SDS011;11392;57.390;-2.468;2023-11-19T13:46:08;0.70;;;0.50;;
22449;SDS011;11392;57.390;-2.468;2023-11-19T13:48:37;0.50;;;0.50;;
22449;SDS011;11392;57.390;-2.468;2023-11-19T13:51:05;0.45;;;0.45;;
22449;SDS011;11392;57.390;-2.468;2023-11-19T13:53:33;0.70;;;0.40;;
22449;SDS011;11392;57.390;-2.468;2023-11-19T13:56:04;0.60;;;0.50;;
22449;SDS011;11392;57.390;-2.468;2023-11-19T13:58:32;0.90;;;0.50;;
22449;SDS011;11392;57.390;-2.468;2023-11-19T14:01:02;0.45;;;0.45;;
22449;SDS011;11392;57.390;-2.468;2023-11-19T14:03:34;0.77;;;0.40;;
22449;SDS011;11392;57.390;-2.468;2023-11-19T14:06:02;0.50;;;0.40;;
22449;SDS011;11392;57.390;-2.468;2023-11-19T14:08:30;0.40;;;0.40;;
22449;SDS011;11392;57.390;-2.468;2023-11-19T14:10:57;0.40;;;0.40;;
22449;SDS011;11392;57.390;-2.468;2023-11-19T14:13:29;0.47;;;0.22;;
22449;SDS011;11392;57.390;-2.468;2023-11-19T14:15:56;0.85;;;0.50;;
22449;SDS011;11392;57.390;-2.468;2023-11-19T14:18:27;0.60;;;0.50;;
22449;SDS011;11392;57.390;-2.468;2023-11-19T14:20:55;0.30;;;0.30;;
22449;SDS011;11392;57.390;-2.468;2023-11-19T14:23:23;1.38;;;1.05;;
22449;SDS011;11392;57.390;-2.468;2023-11-19T14:25:53;0.88;;;0.80;;
22449;SDS011;11392;57.390;-2.468;2023-11-19T14:28:21;0.52;;;0.52;;
22449;SDS011;11392;57.390;-2.468;2023-11-19T14:30:55;1.15;;;0.40;;
22449;SDS011;11392;57.390;-2.468;2023-11-19T14:33:23;0.93;;;0.60;;
22449;SDS011;11392;57.390;-2.468;2023-11-19T14:35:53;1.48;;;1.13;;
22449;SDS011;11392;57.390;-2.468;2023-11-19T14:38:21;1.50;;;1.40;;
22449;SDS011;11392;57.390;-2.468;2023-11-19T14:40:49;2.45;;;1.98;;
22449;SDS011;11392;57.390;-2.468;2023-11-19T14:43:17;4.28;;;3.10;;
22449;SDS011;11392;57.390;-2.468;2023-11-19T14:45:48;4.40;;;4.00;;
22449;SDS011;11392;57.390;-2.468;2023-11-19T14:48:16;3.72;;;3.22;;
22449;SDS011;11392;57.390;-2.468;2023-11-19T14:50:47;2.20;;;2.00;;
22449;SDS011;11392;57.390;-2.468;2023-11-19T14:53:16;1.83;;;1.73;;
22449;SDS011;11392;57.390;-2.468;2023-11-19T14:55:46;3.30;;;3.00;;
22449;SDS011;11392;57.390;-2.468;2023-11-19T14:58:17;2.15;;;1.85;;
22449;SDS011;11392;57.390;-2.468;2023-11-19T15:00:45;2.30;;;2.10;;
22449;SDS011;11392;57.390;-2.468;2023-11-19T15:03:13;2.58;;;2.38;;